createdAt,value
2019-04-24T00:01:54.729Z,23.60
2019-04-24T00:06:44.279Z,23.60
2019-04-24T00:09:12.697Z,23.60
2019-04-24T00:14:26.548Z,23.60
2019-04-24T00:16:57.305Z,23.60
2019-04-24T00:19:44.792Z,23.60
2019-04-24T00:21:51.783Z,23.60
2019-04-24T00:26:43.787Z,23.60
2019-04-24T00:29:24.421Z,23.60
2019-04-24T00:31:49.676Z,23.60
2019-04-24T00:34:19.651Z,23.60
2019-04-24T00:36:57.163Z,23.60
2019-04-24T00:39:20.770Z,23.60
2019-04-24T00:42:00.400Z,23.60
2019-04-24T00:44:16.589Z,23.60
2019-04-24T00:49:21.962Z,23.60
2019-04-24T00:51:44.449Z,23.60
2019-04-24T00:59:25.969Z,23.60
2019-04-24T01:01:54.390Z,23.60
2019-04-24T01:07:04.605Z,23.60
2019-04-24T01:09:26.505Z,23.60
2019-04-24T01:11:55.509Z,23.60
2019-04-24T01:14:21.013Z,23.60
2019-04-24T01:16:44.832Z,23.60
2019-04-24T01:19:15.898Z,23.60
2019-04-24T01:22:00.913Z,23.60
2019-04-24T01:24:13.863Z,23.60
2019-04-24T01:26:48.456Z,23.60
2019-04-24T01:34:31.939Z,23.60
2019-04-24T01:37:12.319Z,23.60
2019-04-24T01:42:20.752Z,23.60
2019-04-24T01:44:46.102Z,23.60
2019-04-24T01:47:21.958Z,23.60
2019-04-24T01:49:46.223Z,23.60
2019-04-24T01:52:29.908Z,23.60
2019-04-24T01:54:47.006Z,23.60
2019-04-24T01:57:15.543Z,23.60
2019-04-24T01:59:42.185Z,23.60
2019-04-24T02:02:14.913Z,23.60
2019-04-24T02:10:02.950Z,23.60
2019-04-24T02:12:18.430Z,23.60
2019-04-24T02:14:50.978Z,23.60
2019-04-24T02:17:20.532Z,23.60
2019-04-24T02:19:41.730Z,23.60
2019-04-24T02:22:18.082Z,23.60
2019-04-24T02:24:43.713Z,23.60
2019-04-24T02:27:18.160Z,23.60
2019-04-24T02:29:37.903Z,23.60
2019-04-24T02:32:35.462Z,23.60
2019-04-24T02:35:00.927Z,23.60
2019-04-24T02:40:04.075Z,23.60
2019-04-24T02:45:09.838Z,23.60
2019-04-24T02:47:33.874Z,23.60
2019-04-24T02:50:02.174Z,23.60
2019-04-24T02:55:07.372Z,23.60
2019-04-24T02:57:31.458Z,23.60
2019-04-24T03:07:47.702Z,23.60
2019-04-24T03:15:22.574Z,23.60
2019-04-24T03:17:41.644Z,23.60
2019-04-24T03:20:37.529Z,23.60
2019-04-24T03:25:53.656Z,23.60
2019-04-24T03:30:24.181Z,23.60
2019-04-24T03:35:42.142Z,23.60
2019-04-24T03:51:24.505Z,23.60
2019-04-24T03:53:09.351Z,23.60
2019-04-24T04:03:24.678Z,23.50
2019-04-24T04:05:35.926Z,23.60
2019-04-24T04:08:43.117Z,23.60
2019-04-24T04:20:59.168Z,23.60
2019-04-24T04:23:47.003Z,23.60
2019-04-24T04:26:15.246Z,23.60
2019-04-24T04:28:44.266Z,23.60
2019-04-24T04:36:55.046Z,23.60
2019-04-24T04:38:51.907Z,23.60
2019-04-24T04:44:16.496Z,23.50
2019-04-24T04:46:57.870Z,23.50
2019-04-24T04:49:44.661Z,23.60
2019-04-24T04:51:41.314Z,23.60
2019-04-24T04:54:06.774Z,23.50
2019-04-24T05:07:22.492Z,23.50
2019-04-24T05:09:40.977Z,23.60
2019-04-24T05:29:37.530Z,23.60
2019-04-24T05:32:06.961Z,23.60
2019-04-24T05:37:52.992Z,23.60
2019-04-24T05:43:04.569Z,23.70
2019-04-24T05:45:06.985Z,23.70
2019-04-24T05:47:52.038Z,23.70
2019-04-24T05:52:48.976Z,23.70
2019-04-24T05:55:36.665Z,23.70
2019-04-24T05:58:06.620Z,23.80
2019-04-24T06:00:35.642Z,23.80
2019-04-24T06:03:17.011Z,23.80
2019-04-24T06:05:48.511Z,23.80
2019-04-24T06:10:49.985Z,23.70
2019-04-24T06:13:28.917Z,23.80
2019-04-24T06:15:59.123Z,23.80
2019-04-24T06:29:17.597Z,23.80
2019-04-24T06:31:20.259Z,23.80
2019-04-24T06:33:52.638Z,23.80
2019-04-24T06:36:41.697Z,23.80
2019-04-24T06:39:09.997Z,23.80
2019-04-24T06:41:42.915Z,23.80
2019-04-24T06:44:08.628Z,23.80
2019-04-24T06:51:57.409Z,23.80
2019-04-24T06:54:31.199Z,23.80
2019-04-24T06:59:16.672Z,23.80
2019-04-24T07:01:58.484Z,23.80
2019-04-24T07:04:53.598Z,23.80
2019-04-24T07:07:03.541Z,23.80
2019-04-24T07:09:38.873Z,23.80
2019-04-24T07:12:15.885Z,23.80
2019-04-24T07:14:49.036Z,23.80
2019-04-24T07:22:26.040Z,23.80
2019-04-24T07:30:06.336Z,23.80
2019-04-24T07:33:00.313Z,23.80
2019-04-24T07:40:59.799Z,23.80
2019-04-24T07:43:19.332Z,23.90
2019-04-24T07:48:10.777Z,23.90
2019-04-24T07:50:59.408Z,23.80
2019-04-24T07:53:45.972Z,23.80
2019-04-24T07:56:12.619Z,23.80
2019-04-24T07:58:41.104Z,23.80
2019-04-24T08:01:06.251Z,23.80
2019-04-24T08:03:32.651Z,23.90
2019-04-24T08:06:18.805Z,23.90
2019-04-24T08:08:46.486Z,23.80
2019-04-24T08:10:50.652Z,23.90
2019-04-24T08:13:32.525Z,23.90
2019-04-24T08:16:03.317Z,23.80
2019-04-24T08:25:57.554Z,23.90
2019-04-24T08:28:29.096Z,23.90
2019-04-24T08:31:21.595Z,23.90
2019-04-24T08:34:21.827Z,23.90
2019-04-24T08:36:20.136Z,23.90
2019-04-24T08:41:58.444Z,23.90
2019-04-24T08:44:05.204Z,23.90
2019-04-24T08:51:42.194Z,23.90
2019-04-24T08:54:10.722Z,23.90
2019-04-24T08:56:43.449Z,23.90
2019-04-24T09:06:44.546Z,23.90
2019-04-24T09:14:25.296Z,23.90
2019-04-24T09:19:28.018Z,23.90
2019-04-24T09:24:44.091Z,24.00
2019-04-24T09:37:51.148Z,23.90
2019-04-24T09:45:23.141Z,24.00
2019-04-24T09:53:02.908Z,24.00
2019-04-24T09:55:22.165Z,24.00
2019-04-24T09:58:11.038Z,24.00
2019-04-24T10:01:06.863Z,24.00
2019-04-24T10:03:12.194Z,23.90
2019-04-24T10:10:42.137Z,24.00
2019-04-24T10:13:11.911Z,24.00
2019-04-24T10:15:49.018Z,24.00
2019-04-24T10:18:08.877Z,24.00
2019-04-24T10:20:56.297Z,24.00
2019-04-24T10:23:14.828Z,24.00
2019-04-24T10:25:44.014Z,24.00
2019-04-24T10:28:57.620Z,24.00
2019-04-24T10:31:11.228Z,24.00
2019-04-24T10:34:02.975Z,24.00
2019-04-24T10:36:21.852Z,24.00
2019-04-24T10:39:02.338Z,24.00
2019-04-24T10:41:43.235Z,24.00
2019-04-24T10:44:11.416Z,24.00
2019-04-24T10:47:03.962Z,24.00
2019-04-24T10:52:03.864Z,24.00
2019-04-24T10:54:33.560Z,24.00
2019-04-24T10:59:30.937Z,24.00
2019-04-24T11:02:27.963Z,24.00
2019-04-24T11:13:00.983Z,24.00
2019-04-24T11:18:09.716Z,24.10
2019-04-24T11:21:13.909Z,24.00
2019-04-24T11:23:27.313Z,24.00
2019-04-24T11:26:10.696Z,24.00
2019-04-24T11:28:36.714Z,24.00
2019-04-24T11:31:04.669Z,24.10
2019-04-24T11:33:47.588Z,24.00
2019-04-24T11:36:34.345Z,24.00
2019-04-24T11:39:07.101Z,24.10
2019-04-24T11:41:26.594Z,24.10
2019-04-24T11:43:57.138Z,24.10
2019-04-24T11:46:48.748Z,24.10
2019-04-24T11:49:11.015Z,24.10
2019-04-24T11:51:34.328Z,24.10
2019-04-24T11:53:50.570Z,24.10
2019-04-24T11:56:46.806Z,24.10
2019-04-24T11:58:45.593Z,24.10
2019-04-24T12:02:06.479Z,24.10
2019-04-24T12:04:55.002Z,24.10
2019-04-24T12:07:24.842Z,24.10
2019-04-24T12:09:54.773Z,24.10
2019-04-24T12:12:16.317Z,24.10
2019-04-24T12:14:47.574Z,24.10
2019-04-24T12:17:21.327Z,24.10
2019-04-24T12:20:10.006Z,24.10
2019-04-24T12:22:35.819Z,24.10
2019-04-24T12:25:07.542Z,24.10
2019-04-24T12:27:47.548Z,24.10
2019-04-24T12:35:21.802Z,24.10
2019-04-24T12:37:57.555Z,24.10
2019-04-24T12:40:25.292Z,24.10
2019-04-24T12:45:25.560Z,24.10
2019-04-24T12:47:46.856Z,24.10
2019-04-24T12:52:46.290Z,24.10
2019-04-24T12:55:21.977Z,24.10
2019-04-24T13:00:42.384Z,24.10
2019-04-24T13:05:35.310Z,24.10
2019-04-24T13:08:10.888Z,24.10
2019-04-24T13:10:40.356Z,24.10
2019-04-24T13:13:31.962Z,24.10
2019-04-24T13:18:30.675Z,24.10
2019-04-24T13:20:32.513Z,24.10
2019-04-24T13:23:13.571Z,24.10
2019-04-24T13:26:05.925Z,24.10
2019-04-24T13:31:17.030Z,24.10
2019-04-24T13:33:38.640Z,24.10
2019-04-24T13:36:20.227Z,24.10
2019-04-24T13:38:48.142Z,24.10
2019-04-24T13:41:00.059Z,24.10
2019-04-24T13:44:13.452Z,24.10
2019-04-24T13:51:05.066Z,24.10
2019-04-24T13:56:20.752Z,24.10
2019-04-24T13:58:38.669Z,24.10
2019-04-24T14:01:21.410Z,24.10
2019-04-24T14:03:56.594Z,24.10
2019-04-24T14:06:15.436Z,24.10
2019-04-24T14:11:32.727Z,24.10
2019-04-24T14:13:44.519Z,24.10
2019-04-24T14:16:06.387Z,24.10
2019-04-24T14:18:21.375Z,24.10
2019-04-24T14:21:20.764Z,24.20
2019-04-24T14:28:48.884Z,24.20
2019-04-24T14:31:23.078Z,24.20
2019-04-24T14:33:55.776Z,24.20
2019-04-24T14:39:02.344Z,24.20
2019-04-24T14:48:51.384Z,24.20
2019-04-24T14:51:21.423Z,24.20
2019-04-24T14:53:54.238Z,24.20
2019-04-24T14:56:22.552Z,24.20
2019-04-24T14:58:59.060Z,24.20
2019-04-24T15:01:19.218Z,24.10
2019-04-24T15:03:44.994Z,24.10
2019-04-24T15:06:23.687Z,24.10
2019-04-24T15:08:55.762Z,24.20
2019-04-24T15:11:11.135Z,24.10
2019-04-24T15:13:51.900Z,24.10
2019-04-24T15:16:38.323Z,24.10
2019-04-24T15:24:09.823Z,24.10
2019-04-24T15:26:22.799Z,24.10
2019-04-24T15:28:53.779Z,24.10
2019-04-24T15:31:09.995Z,24.20
2019-04-24T15:33:57.443Z,24.20
2019-04-24T15:41:24.130Z,24.10
2019-04-24T15:43:38.520Z,24.20
2019-04-24T15:48:47.293Z,24.20
2019-04-24T15:53:09.160Z,24.10
2019-04-24T15:55:38.439Z,24.10
2019-04-24T15:58:13.885Z,24.10
2019-04-24T16:01:14.520Z,24.10
2019-04-24T16:03:38.575Z,24.10
2019-04-24T16:05:39.349Z,24.10
2019-04-24T16:08:14.465Z,24.20
2019-04-24T16:10:42.984Z,24.10
2019-04-24T16:13:13.341Z,24.10
2019-04-24T16:19:04.137Z,24.10
2019-04-24T16:21:14.156Z,24.10
2019-04-24T16:26:27.748Z,24.20
2019-04-24T16:29:03.455Z,24.20
2019-04-24T16:31:15.723Z,24.20
2019-04-24T16:33:38.583Z,24.30
2019-04-24T16:36:14.505Z,24.20
2019-04-24T16:44:01.779Z,24.20
2019-04-24T16:46:45.758Z,24.30
2019-04-24T16:48:39.892Z,24.20
2019-04-24T16:53:57.046Z,24.20
2019-04-24T16:56:32.781Z,24.30
2019-04-24T16:58:55.085Z,24.20
2019-04-24T17:04:09.723Z,24.20
2019-04-24T17:08:59.843Z,24.30
2019-04-24T17:13:59.667Z,24.20
2019-04-24T17:16:35.434Z,24.20
2019-04-24T17:19:02.960Z,24.30
2019-04-24T17:23:51.448Z,24.30
2019-04-24T17:26:19.462Z,24.40
2019-04-24T17:28:56.089Z,24.40
2019-04-24T17:31:18.443Z,24.50
2019-04-24T17:33:51.393Z,24.50
2019-04-24T17:38:17.358Z,24.50
2019-04-24T17:40:44.988Z,24.50
2019-04-24T17:43:42.530Z,24.50
2019-04-24T17:46:12.259Z,24.50
2019-04-24T17:48:39.941Z,24.50
2019-04-24T17:51:20.307Z,24.50
2019-04-24T17:53:38.241Z,24.40
2019-04-24T18:00:39.728Z,24.40
2019-04-24T18:03:10.991Z,24.30
2019-04-24T18:05:37.007Z,24.30
2019-04-24T18:08:06.105Z,24.30
2019-04-24T18:10:34.894Z,24.30
2019-04-24T18:13:03.594Z,24.30
2019-04-24T18:15:32.449Z,24.20
2019-04-24T18:18:00.175Z,24.30
2019-04-24T18:20:27.730Z,24.20
2019-04-24T18:22:55.310Z,24.20
2019-04-24T18:25:27.159Z,24.20
2019-04-24T18:27:54.906Z,24.20
2019-04-24T18:30:27.053Z,24.20
2019-04-24T18:32:54.660Z,24.20
2019-04-24T18:35:22.253Z,24.20
2019-04-24T18:37:49.858Z,24.20
2019-04-24T18:40:17.483Z,24.20
2019-04-24T18:42:45.106Z,24.20
2019-04-24T18:45:15.047Z,24.20
2019-04-24T18:47:42.167Z,24.20
2019-04-24T18:50:09.762Z,24.20
2019-04-24T18:52:48.977Z,24.20
2019-04-24T18:55:07.223Z,24.30
2019-04-24T18:57:34.849Z,24.20
2019-04-24T19:00:03.137Z,24.20
2019-04-24T19:02:32.273Z,24.20
2019-04-24T19:05:01.837Z,24.20
2019-04-24T19:07:29.388Z,24.20
2019-04-24T19:09:57.017Z,24.20
2019-04-24T19:12:24.645Z,24.20
2019-04-24T19:14:52.383Z,24.20
2019-04-24T19:17:21.265Z,24.20
2019-04-24T19:19:48.995Z,24.10
2019-04-24T19:22:17.983Z,24.20
2019-04-24T19:24:45.574Z,24.10
2019-04-24T19:27:13.205Z,24.10
2019-04-24T19:29:40.880Z,24.10
2019-04-24T19:32:09.051Z,24.10
2019-04-24T19:34:36.726Z,24.10
2019-04-24T19:37:04.430Z,24.10
2019-04-24T19:39:32.223Z,24.10
2019-04-24T19:41:59.813Z,24.00
2019-04-24T19:44:27.401Z,24.00
2019-04-24T19:46:54.968Z,24.00
2019-04-24T19:49:25.869Z,24.00
2019-04-24T19:51:51.886Z,24.00
2019-04-24T19:54:19.778Z,24.00
2019-04-24T19:56:47.562Z,24.00
2019-04-24T19:59:15.217Z,24.00
2019-04-24T20:01:42.794Z,24.00
2019-04-24T20:04:13.172Z,24.00
2019-04-24T20:06:41.189Z,23.90
2019-04-24T20:09:10.599Z,23.90
2019-04-24T20:11:42.556Z,23.90
2019-04-24T20:14:11.589Z,24.00
2019-04-24T20:16:39.581Z,23.90
2019-04-24T20:19:07.123Z,23.90
2019-04-24T20:21:34.695Z,23.90
2019-04-24T20:24:02.396Z,23.90
2019-04-24T20:26:31.229Z,23.90
2019-04-24T20:28:58.983Z,23.90
2019-04-24T20:31:26.611Z,23.90
2019-04-24T20:33:54.150Z,23.90
2019-04-24T20:36:23.284Z,23.90
2019-04-24T20:38:52.043Z,23.90
2019-04-24T20:41:19.857Z,23.90
2019-04-24T20:43:47.464Z,23.90
2019-04-24T20:46:15.376Z,23.90
2019-04-24T20:48:43.125Z,23.90
2019-04-24T20:51:11.993Z,23.90
2019-04-24T20:53:40.498Z,23.90
2019-04-24T20:56:08.353Z,23.90
2019-04-24T20:58:35.991Z,23.90
2019-04-24T21:01:05.249Z,23.90
2019-04-24T21:03:32.834Z,23.90
2019-04-24T21:06:04.827Z,23.90
2019-04-24T21:08:36.999Z,23.90
2019-04-24T21:11:04.543Z,23.90
2019-04-24T21:13:32.165Z,23.90
2019-04-24T21:16:01.127Z,23.90
2019-04-24T21:18:28.887Z,23.90
2019-04-24T21:20:56.463Z,23.90
2019-04-24T21:23:24.256Z,23.80
2019-04-24T21:25:52.146Z,23.80
2019-04-24T21:28:20.249Z,23.80
2019-04-24T21:30:48.596Z,23.80
2019-04-24T21:33:16.185Z,23.80
2019-04-24T21:35:43.786Z,23.80
2019-04-24T21:38:11.341Z,23.80
2019-04-24T21:40:38.950Z,23.80
2019-04-24T21:43:06.600Z,23.80
2019-04-24T21:45:34.211Z,23.80
2019-04-24T21:48:03.306Z,23.80
2019-04-24T21:50:32.591Z,23.80
2019-04-24T21:53:01.809Z,23.80
2019-04-24T21:55:29.632Z,23.80
2019-04-24T21:58:04.077Z,23.80
2019-04-24T22:00:34.801Z,23.80
2019-04-24T22:03:02.525Z,23.80
2019-04-24T22:05:32.530Z,23.80
2019-04-24T22:08:00.115Z,23.80
2019-04-24T22:10:28.428Z,23.80
2019-04-24T22:12:56.075Z,23.80
2019-04-24T22:15:23.652Z,23.80
2019-04-24T22:17:52.614Z,23.80
2019-04-24T22:20:27.758Z,23.80
2019-04-24T22:22:58.125Z,23.80
2019-04-24T22:25:27.711Z,23.80
2019-04-24T22:27:55.374Z,23.80
2019-04-24T22:30:24.572Z,23.80
2019-04-24T22:32:52.161Z,23.80
2019-04-24T22:35:21.880Z,23.80
2019-04-24T22:37:50.718Z,23.80
2019-04-24T22:40:19.941Z,23.80
2019-04-24T22:42:47.492Z,23.80
2019-04-24T22:45:15.383Z,23.80
2019-04-24T22:47:44.042Z,23.80
2019-04-24T22:50:12.108Z,23.80
2019-04-24T22:52:41.345Z,23.80
2019-04-24T22:55:11.782Z,23.80
2019-04-24T22:57:39.472Z,23.80
2019-04-24T23:00:08.731Z,23.80
2019-04-24T23:02:36.738Z,23.70
2019-04-24T23:05:05.204Z,23.80
2019-04-24T23:07:32.806Z,23.70
2019-04-24T23:10:00.420Z,23.70
2019-04-24T23:12:28.044Z,23.70
2019-04-24T23:14:55.666Z,23.70
2019-04-24T23:17:23.317Z,23.70
2019-04-24T23:19:51.379Z,23.70
2019-04-24T23:22:37.699Z,23.70
2019-04-24T23:25:13.658Z,23.70
2019-04-24T23:27:43.645Z,23.70
2019-04-24T23:30:29.644Z,23.70
2019-04-24T23:32:58.843Z,23.70
2019-04-24T23:35:26.459Z,23.70
2019-04-24T23:37:54.000Z,23.70
2019-04-24T23:40:22.494Z,23.70
2019-04-24T23:42:50.152Z,23.70
2019-04-24T23:45:17.792Z,23.70
2019-04-24T23:47:45.382Z,23.70
2019-04-24T23:50:12.996Z,23.70
2019-04-24T23:52:41.953Z,23.70
2019-04-24T23:55:09.895Z,23.70
2019-04-24T23:57:37.805Z,23.70
